sensor_id;sensor_type;location;lat;lon;timestamp;P1;durP1;ratioP1;P2;durP2;ratioP2
12110;SDS011;6119;52.372;8.990;2023-02-01T00:02:26;12.00;;;2.80;;
12110;SDS011;6119;52.372;8.990;2023-02-01T00:05:12;9.90;;;1.97;;
12110;SDS011;6119;52.372;8.990;2023-02-01T00:08:00;9.60;;;2.10;;
12110;SDS011;6119;52.372;8.990;2023-02-01T00:10:47;13.10;;;2.13;;
12110;SDS011;6119;52.372;8.990;2023-02-01T00:13:35;12.83;;;2.80;;
12110;SDS011;6119;52.372;8.990;2023-02-01T00:16:24;16.30;;;2.87;;
12110;SDS011;6119;52.372;8.990;2023-02-01T00:19:13;10.90;;;2.23;;
12110;SDS011;6119;52.372;8.990;2023-02-01T00:22:01;10.77;;;2.43;;
12110;SDS011;6119;52.372;8.990;2023-02-01T00:24:47;8.03;;;2.63;;
12110;SDS011;6119;52.372;8.990;2023-02-01T00:27:33;11.80;;;2.03;;
12110;SDS011;6119;52.372;8.990;2023-02-01T00:30:21;20.53;;;3.40;;
12110;SDS011;6119;52.372;8.990;2023-02-01T00:33:08;10.73;;;2.87;;
12110;SDS011;6119;52.372;8.990;2023-02-01T00:35:55;15.03;;;2.40;;
12110;SDS011;6119;52.372;8.990;2023-02-01T00:38:43;16.27;;;3.13;;
12110;SDS011;6119;52.372;8.990;2023-02-01T00:41:30;13.23;;;2.17;;
12110;SDS011;6119;52.372;8.990;2023-02-01T00:44:16;11.40;;;2.97;;
12110;SDS011;6119;52.372;8.990;2023-02-01T00:47:04;10.40;;;2.80;;
12110;SDS011;6119;52.372;8.990;2023-02-01T00:49:51;7.70;;;2.27;;
12110;SDS011;6119;52.372;8.990;2023-02-01T00:52:37;11.70;;;2.50;;
12110;SDS011;6119;52.372;8.990;2023-02-01T00:55:24;9.07;;;2.47;;
12110;SDS011;6119;52.372;8.990;2023-02-01T00:58:10;12.47;;;2.33;;
12110;SDS011;6119;52.372;8.990;2023-02-01T01:01:00;12.93;;;2.30;;
12110;SDS011;6119;52.372;8.990;2023-02-01T01:03:50;15.47;;;2.33;;
12110;SDS011;6119;52.372;8.990;2023-02-01T01:06:38;11.40;;;2.60;;
12110;SDS011;6119;52.372;8.990;2023-02-01T01:09:25;11.73;;;2.20;;
12110;SDS011;6119;52.372;8.990;2023-02-01T01:12:11;14.37;;;2.97;;
12110;SDS011;6119;52.372;8.990;2023-02-01T01:14:58;12.53;;;2.37;;
12110;SDS011;6119;52.372;8.990;2023-02-01T01:17:44;7.50;;;2.43;;
12110;SDS011;6119;52.372;8.990;2023-02-01T01:20:33;12.83;;;2.73;;
12110;SDS011;6119;52.372;8.990;2023-02-01T01:23:21;11.27;;;2.80;;
12110;SDS011;6119;52.372;8.990;2023-02-01T01:26:08;11.63;;;2.80;;
12110;SDS011;6119;52.372;8.990;2023-02-01T01:29:01;14.17;;;2.47;;
12110;SDS011;6119;52.372;8.990;2023-02-01T01:31:48;15.37;;;3.30;;
12110;SDS011;6119;52.372;8.990;2023-02-01T01:34:35;13.13;;;2.83;;
12110;SDS011;6119;52.372;8.990;2023-02-01T01:37:23;10.67;;;2.43;;
12110;SDS011;6119;52.372;8.990;2023-02-01T01:40:11;8.03;;;2.07;;
12110;SDS011;6119;52.372;8.990;2023-02-01T01:42:58;17.80;;;3.17;;
12110;SDS011;6119;52.372;8.990;2023-02-01T01:45:45;9.97;;;2.20;;
12110;SDS011;6119;52.372;8.990;2023-02-01T01:48:31;16.33;;;3.17;;
12110;SDS011;6119;52.372;8.990;2023-02-01T01:51:19;8.43;;;2.27;;
12110;SDS011;6119;52.372;8.990;2023-02-01T01:54:11;9.57;;;2.50;;
12110;SDS011;6119;52.372;8.990;2023-02-01T01:57:02;12.47;;;2.63;;
12110;SDS011;6119;52.372;8.990;2023-02-01T01:59:53;9.20;;;2.67;;
12110;SDS011;6119;52.372;8.990;2023-02-01T02:02:47;16.33;;;2.47;;
12110;SDS011;6119;52.372;8.990;2023-02-01T02:05:38;9.57;;;2.67;;
12110;SDS011;6119;52.372;8.990;2023-02-01T02:08:25;13.67;;;2.70;;
12110;SDS011;6119;52.372;8.990;2023-02-01T02:11:14;9.03;;;2.40;;
12110;SDS011;6119;52.372;8.990;2023-02-01T02:14:02;12.20;;;2.47;;
12110;SDS011;6119;52.372;8.990;2023-02-01T02:16:53;9.23;;;2.07;;
12110;SDS011;6119;52.372;8.990;2023-02-01T02:23:27;13.07;;;3.00;;
12110;SDS011;6119;52.372;8.990;2023-02-01T02:26:47;12.47;;;2.77;;
12110;SDS011;6119;52.372;8.990;2023-02-01T02:30:30;7.03;;;2.43;;
12110;SDS011;6119;52.372;8.990;2023-02-01T02:33:42;10.17;;;2.13;;
12110;SDS011;6119;52.372;8.990;2023-02-01T02:36:47;9.73;;;2.20;;
12110;SDS011;6119;52.372;8.990;2023-02-01T02:39:44;6.17;;;2.00;;
12110;SDS011;6119;52.372;8.990;2023-02-01T02:42:38;16.07;;;2.33;;
12110;SDS011;6119;52.372;8.990;2023-02-01T02:45:49;12.87;;;2.80;;
12110;SDS011;6119;52.372;8.990;2023-02-01T02:49:00;6.93;;;1.80;;
12110;SDS011;6119;52.372;8.990;2023-02-01T02:51:55;17.03;;;3.20;;
12110;SDS011;6119;52.372;8.990;2023-02-01T02:55:05;10.70;;;1.73;;
12110;SDS011;6119;52.372;8.990;2023-02-01T02:57:54;8.53;;;2.03;;
12110;SDS011;6119;52.372;8.990;2023-02-01T03:01:01;13.87;;;2.93;;
12110;SDS011;6119;52.372;8.990;2023-02-01T03:04:08;11.53;;;2.13;;
12110;SDS011;6119;52.372;8.990;2023-02-01T03:07:10;17.30;;;2.83;;
12110;SDS011;6119;52.372;8.990;2023-02-01T03:09:58;5.90;;;2.07;;
12110;SDS011;6119;52.372;8.990;2023-02-01T03:12:50;12.23;;;2.27;;
12110;SDS011;6119;52.372;8.990;2023-02-01T03:15:42;17.13;;;3.23;;
12110;SDS011;6119;52.372;8.990;2023-02-01T03:18:36;7.27;;;2.63;;
12110;SDS011;6119;52.372;8.990;2023-02-01T03:21:31;7.93;;;2.13;;
12110;SDS011;6119;52.372;8.990;2023-02-01T03:24:23;11.33;;;3.23;;
12110;SDS011;6119;52.372;8.990;2023-02-01T03:27:20;9.93;;;2.87;;
12110;SDS011;6119;52.372;8.990;2023-02-01T03:30:11;11.77;;;2.77;;
12110;SDS011;6119;52.372;8.990;2023-02-01T03:33:04;13.93;;;2.33;;
12110;SDS011;6119;52.372;8.990;2023-02-01T03:36:00;11.17;;;2.33;;
12110;SDS011;6119;52.372;8.990;2023-02-01T03:38:58;10.57;;;2.33;;
12110;SDS011;6119;52.372;8.990;2023-02-01T03:41:49;14.10;;;2.53;;
12110;SDS011;6119;52.372;8.990;2023-02-01T03:44:40;14.67;;;2.77;;
12110;SDS011;6119;52.372;8.990;2023-02-01T03:47:33;14.57;;;2.77;;
12110;SDS011;6119;52.372;8.990;2023-02-01T03:50:22;8.87;;;2.00;;
12110;SDS011;6119;52.372;8.990;2023-02-01T03:53:14;10.97;;;1.90;;
12110;SDS011;6119;52.372;8.990;2023-02-01T03:56:05;13.13;;;3.20;;
12110;SDS011;6119;52.372;8.990;2023-02-01T03:58:52;9.73;;;2.33;;
12110;SDS011;6119;52.372;8.990;2023-02-01T04:01:44;8.50;;;2.30;;
12110;SDS011;6119;52.372;8.990;2023-02-01T04:04:31;9.80;;;2.80;;
12110;SDS011;6119;52.372;8.990;2023-02-01T04:07:18;8.07;;;2.10;;
12110;SDS011;6119;52.372;8.990;2023-02-01T04:10:05;9.93;;;2.13;;
12110;SDS011;6119;52.372;8.990;2023-02-01T04:12:53;13.80;;;2.83;;
12110;SDS011;6119;52.372;8.990;2023-02-01T04:15:40;8.07;;;2.30;;
12110;SDS011;6119;52.372;8.990;2023-02-01T04:18:26;7.50;;;1.67;;
12110;SDS011;6119;52.372;8.990;2023-02-01T04:21:12;13.47;;;2.40;;
12110;SDS011;6119;52.372;8.990;2023-02-01T04:23:59;8.07;;;2.10;;
12110;SDS011;6119;52.372;8.990;2023-02-01T04:26:45;12.60;;;2.67;;
12110;SDS011;6119;52.372;8.990;2023-02-01T04:29:34;14.37;;;2.57;;
12110;SDS011;6119;52.372;8.990;2023-02-01T04:32:20;10.40;;;2.67;;
12110;SDS011;6119;52.372;8.990;2023-02-01T04:35:07;8.20;;;2.20;;
12110;SDS011;6119;52.372;8.990;2023-02-01T04:37:54;10.60;;;2.47;;
12110;SDS011;6119;52.372;8.990;2023-02-01T04:40:40;13.53;;;2.47;;
12110;SDS011;6119;52.372;8.990;2023-02-01T04:43:26;8.73;;;2.70;;
12110;SDS011;6119;52.372;8.990;2023-02-01T04:46:14;10.97;;;2.40;;
12110;SDS011;6119;52.372;8.990;2023-02-01T04:49:01;9.43;;;2.37;;
12110;SDS011;6119;52.372;8.990;2023-02-01T04:51:47;8.87;;;2.73;;
12110;SDS011;6119;52.372;8.990;2023-02-01T04:54:34;12.43;;;2.40;;
12110;SDS011;6119;52.372;8.990;2023-02-01T04:57:20;17.23;;;3.30;;
12110;SDS011;6119;52.372;8.990;2023-02-01T05:00:07;9.27;;;2.77;;
12110;SDS011;6119;52.372;8.990;2023-02-01T05:02:56;10.43;;;2.20;;
12110;SDS011;6119;52.372;8.990;2023-02-01T05:05:43;7.00;;;2.10;;
12110;SDS011;6119;52.372;8.990;2023-02-01T05:08:29;14.17;;;2.37;;
12110;SDS011;6119;52.372;8.990;2023-02-01T05:11:16;13.60;;;3.03;;
12110;SDS011;6119;52.372;8.990;2023-02-01T05:14:16;9.07;;;2.57;;
12110;SDS011;6119;52.372;8.990;2023-02-01T05:17:03;9.07;;;2.47;;
12110;SDS011;6119;52.372;8.990;2023-02-01T05:19:50;17.10;;;2.33;;
12110;SDS011;6119;52.372;8.990;2023-02-01T05:22:37;6.33;;;2.17;;
12110;SDS011;6119;52.372;8.990;2023-02-01T05:25:23;8.57;;;2.60;;
12110;SDS011;6119;52.372;8.990;2023-02-01T05:28:10;7.23;;;2.47;;
12110;SDS011;6119;52.372;8.990;2023-02-01T05:30:57;9.90;;;2.13;;
12110;SDS011;6119;52.372;8.990;2023-02-01T05:33:43;9.00;;;3.23;;
12110;SDS011;6119;52.372;8.990;2023-02-01T05:36:31;11.03;;;2.37;;
12110;SDS011;6119;52.372;8.990;2023-02-01T05:39:18;16.73;;;2.97;;
12110;SDS011;6119;52.372;8.990;2023-02-01T05:42:04;9.90;;;2.80;;
12110;SDS011;6119;52.372;8.990;2023-02-01T05:44:51;11.83;;;2.60;;
12110;SDS011;6119;52.372;8.990;2023-02-01T05:47:37;10.30;;;2.03;;
12110;SDS011;6119;52.372;8.990;2023-02-01T05:50:23;7.63;;;2.13;;
12110;SDS011;6119;52.372;8.990;2023-02-01T05:53:11;11.50;;;2.63;;
12110;SDS011;6119;52.372;8.990;2023-02-01T05:55:58;11.27;;;3.10;;
12110;SDS011;6119;52.372;8.990;2023-02-01T05:58:44;7.73;;;2.40;;
12110;SDS011;6119;52.372;8.990;2023-02-01T06:01:30;8.77;;;2.50;;
12110;SDS011;6119;52.372;8.990;2023-02-01T06:04:17;13.77;;;2.83;;
12110;SDS011;6119;52.372;8.990;2023-02-01T06:07:03;12.53;;;3.03;;
12110;SDS011;6119;52.372;8.990;2023-02-01T06:09:53;6.87;;;2.37;;
12110;SDS011;6119;52.372;8.990;2023-02-01T06:12:39;7.90;;;2.37;;
12110;SDS011;6119;52.372;8.990;2023-02-01T06:15:26;8.90;;;2.50;;
12110;SDS011;6119;52.372;8.990;2023-02-01T06:18:13;8.90;;;2.23;;
12110;SDS011;6119;52.372;8.990;2023-02-01T06:21:00;9.53;;;2.50;;
12110;SDS011;6119;52.372;8.990;2023-02-01T06:23:47;7.83;;;2.10;;
12110;SDS011;6119;52.372;8.990;2023-02-01T06:26:35;8.33;;;2.33;;
12110;SDS011;6119;52.372;8.990;2023-02-01T06:29:22;9.63;;;2.50;;
12110;SDS011;6119;52.372;8.990;2023-02-01T06:32:08;7.83;;;1.80;;
12110;SDS011;6119;52.372;8.990;2023-02-01T06:34:56;13.27;;;2.60;;
12110;SDS011;6119;52.372;8.990;2023-02-01T06:37:42;9.47;;;3.10;;
12110;SDS011;6119;52.372;8.990;2023-02-01T06:40:29;6.67;;;2.13;;
12110;SDS011;6119;52.372;8.990;2023-02-01T06:43:17;10.93;;;2.63;;
12110;SDS011;6119;52.372;8.990;2023-02-01T06:46:04;10.70;;;2.67;;
12110;SDS011;6119;52.372;8.990;2023-02-01T06:48:52;7.27;;;2.60;;
12110;SDS011;6119;52.372;8.990;2023-02-01T06:51:39;9.17;;;2.60;;
12110;SDS011;6119;52.372;8.990;2023-02-01T06:54:25;5.93;;;2.07;;
12110;SDS011;6119;52.372;8.990;2023-02-01T06:57:12;14.80;;;3.23;;
12110;SDS011;6119;52.372;8.990;2023-02-01T07:00:01;9.70;;;3.27;;
12110;SDS011;6119;52.372;8.990;2023-02-01T07:02:49;9.30;;;2.77;;
12110;SDS011;6119;52.372;8.990;2023-02-01T07:05:36;9.90;;;2.70;;
12110;SDS011;6119;52.372;8.990;2023-02-01T07:08:22;12.33;;;3.20;;
12110;SDS011;6119;52.372;8.990;2023-02-01T07:11:10;8.97;;;2.90;;
12110;SDS011;6119;52.372;8.990;2023-02-01T07:13:58;15.43;;;3.10;;
12110;SDS011;6119;52.372;8.990;2023-02-01T07:16:46;7.10;;;2.33;;
12110;SDS011;6119;52.372;8.990;2023-02-01T07:19:32;14.27;;;3.40;;
12110;SDS011;6119;52.372;8.990;2023-02-01T07:22:19;10.03;;;2.47;;
12110;SDS011;6119;52.372;8.990;2023-02-01T07:25:06;7.27;;;2.47;;
12110;SDS011;6119;52.372;8.990;2023-02-01T07:27:53;15.77;;;2.87;;
12110;SDS011;6119;52.372;8.990;2023-02-01T07:30:39;8.63;;;2.57;;
12110;SDS011;6119;52.372;8.990;2023-02-01T07:33:28;9.43;;;2.60;;
12110;SDS011;6119;52.372;8.990;2023-02-01T07:36:15;12.33;;;2.70;;
12110;SDS011;6119;52.372;8.990;2023-02-01T07:39:02;6.70;;;2.43;;
12110;SDS011;6119;52.372;8.990;2023-02-01T07:41:49;8.40;;;2.00;;
12110;SDS011;6119;52.372;8.990;2023-02-01T07:44:35;7.00;;;2.60;;
12110;SDS011;6119;52.372;8.990;2023-02-01T07:47:21;6.53;;;2.20;;
12110;SDS011;6119;52.372;8.990;2023-02-01T07:50:10;9.67;;;2.80;;
12110;SDS011;6119;52.372;8.990;2023-02-01T07:52:57;10.87;;;2.50;;
12110;SDS011;6119;52.372;8.990;2023-02-01T07:55:44;9.23;;;2.20;;
12110;SDS011;6119;52.372;8.990;2023-02-01T07:58:32;12.13;;;3.17;;
12110;SDS011;6119;52.372;8.990;2023-02-01T08:01:20;8.97;;;2.03;;
12110;SDS011;6119;52.372;8.990;2023-02-01T08:04:09;8.17;;;2.10;;
12110;SDS011;6119;52.372;8.990;2023-02-01T08:06:59;13.50;;;2.70;;
12110;SDS011;6119;52.372;8.990;2023-02-01T08:09:46;9.40;;;2.00;;
12110;SDS011;6119;52.372;8.990;2023-02-01T08:12:32;15.90;;;2.63;;
12110;SDS011;6119;52.372;8.990;2023-02-01T08:15:18;9.70;;;2.73;;
12110;SDS011;6119;52.372;8.990;2023-02-01T08:18:05;7.67;;;2.10;;
12110;SDS011;6119;52.372;8.990;2023-02-01T08:20:51;5.33;;;1.93;;
12110;SDS011;6119;52.372;8.990;2023-02-01T08:23:40;10.27;;;2.10;;
12110;SDS011;6119;52.372;8.990;2023-02-01T08:26:27;7.00;;;2.33;;
12110;SDS011;6119;52.372;8.990;2023-02-01T08:29:14;13.37;;;2.70;;
12110;SDS011;6119;52.372;8.990;2023-02-01T08:32:01;11.60;;;2.33;;
12110;SDS011;6119;52.372;8.990;2023-02-01T08:34:47;7.77;;;1.87;;
12110;SDS011;6119;52.372;8.990;2023-02-01T08:37:34;13.17;;;2.63;;
12110;SDS011;6119;52.372;8.990;2023-02-01T08:40:22;4.63;;;1.47;;
12110;SDS011;6119;52.372;8.990;2023-02-01T08:43:09;10.03;;;2.53;;
12110;SDS011;6119;52.372;8.990;2023-02-01T08:45:55;8.23;;;2.23;;
12110;SDS011;6119;52.372;8.990;2023-02-01T08:48:42;13.00;;;2.63;;
12110;SDS011;6119;52.372;8.990;2023-02-01T08:51:31;4.43;;;1.80;;
12110;SDS011;6119;52.372;8.990;2023-02-01T08:54:17;10.03;;;2.20;;
12110;SDS011;6119;52.372;8.990;2023-02-01T08:57:05;5.03;;;2.03;;
12110;SDS011;6119;52.372;8.990;2023-02-01T08:59:52;10.57;;;2.60;;
12110;SDS011;6119;52.372;8.990;2023-02-01T09:02:38;12.20;;;2.60;;
12110;SDS011;6119;52.372;8.990;2023-02-01T09:05:25;6.20;;;2.13;;
12110;SDS011;6119;52.372;8.990;2023-02-01T09:08:32;15.97;;;3.00;;
12110;SDS011;6119;52.372;8.990;2023-02-01T09:11:18;9.83;;;2.83;;
12110;SDS011;6119;52.372;8.990;2023-02-01T09:14:06;10.40;;;2.67;;
12110;SDS011;6119;52.372;8.990;2023-02-01T09:16:53;12.03;;;3.07;;
12110;SDS011;6119;52.372;8.990;2023-02-01T09:19:39;13.27;;;4.40;;
12110;SDS011;6119;52.372;8.990;2023-02-01T09:22:27;6.43;;;2.27;;
12110;SDS011;6119;52.372;8.990;2023-02-01T09:25:13;12.33;;;2.47;;
12110;SDS011;6119;52.372;8.990;2023-02-01T09:28:00;11.57;;;2.30;;
12110;SDS011;6119;52.372;8.990;2023-02-01T09:30:54;6.80;;;2.20;;
12110;SDS011;6119;52.372;8.990;2023-02-01T09:33:41;4.57;;;2.10;;
12110;SDS011;6119;52.372;8.990;2023-02-01T09:36:28;8.27;;;2.40;;
12110;SDS011;6119;52.372;8.990;2023-02-01T09:39:15;9.73;;;2.60;;
12110;SDS011;6119;52.372;8.990;2023-02-01T09:42:05;11.93;;;2.93;;
12110;SDS011;6119;52.372;8.990;2023-02-01T09:45:05;7.67;;;2.43;;
12110;SDS011;6119;52.372;8.990;2023-02-01T09:48:02;8.10;;;2.40;;
12110;SDS011;6119;52.372;8.990;2023-02-01T09:50:56;8.27;;;2.43;;
12110;SDS011;6119;52.372;8.990;2023-02-01T09:53:44;8.50;;;1.73;;
12110;SDS011;6119;52.372;8.990;2023-02-01T09:56:36;7.67;;;2.20;;
12110;SDS011;6119;52.372;8.990;2023-02-01T09:59:29;10.67;;;2.30;;
12110;SDS011;6119;52.372;8.990;2023-02-01T10:02:21;13.87;;;2.53;;
12110;SDS011;6119;52.372;8.990;2023-02-01T10:05:14;9.37;;;2.27;;
12110;SDS011;6119;52.372;8.990;2023-02-01T10:08:04;6.67;;;2.33;;
12110;SDS011;6119;52.372;8.990;2023-02-01T10:11:04;6.23;;;2.50;;
12110;SDS011;6119;52.372;8.990;2023-02-01T10:13:59;11.57;;;2.03;;
12110;SDS011;6119;52.372;8.990;2023-02-01T10:16:55;8.00;;;2.33;;
12110;SDS011;6119;52.372;8.990;2023-02-01T10:19:52;6.77;;;2.53;;
12110;SDS011;6119;52.372;8.990;2023-02-01T10:22:50;12.93;;;2.20;;
12110;SDS011;6119;52.372;8.990;2023-02-01T10:26:08;12.30;;;2.40;;
12110;SDS011;6119;52.372;8.990;2023-02-01T10:29:04;11.60;;;3.27;;
12110;SDS011;6119;52.372;8.990;2023-02-01T10:31:55;9.63;;;2.33;;
12110;SDS011;6119;52.372;8.990;2023-02-01T10:34:43;7.90;;;2.47;;
12110;SDS011;6119;52.372;8.990;2023-02-01T10:37:34;9.43;;;2.10;;
12110;SDS011;6119;52.372;8.990;2023-02-01T10:40:22;7.07;;;2.20;;
12110;SDS011;6119;52.372;8.990;2023-02-01T10:43:11;10.27;;;2.10;;
12110;SDS011;6119;52.372;8.990;2023-02-01T10:45:58;10.40;;;3.27;;
12110;SDS011;6119;52.372;8.990;2023-02-01T10:48:45;6.07;;;1.80;;
12110;SDS011;6119;52.372;8.990;2023-02-01T10:51:38;10.83;;;2.20;;
12110;SDS011;6119;52.372;8.990;2023-02-01T10:54:32;8.90;;;2.67;;
12110;SDS011;6119;52.372;8.990;2023-02-01T10:57:22;8.90;;;2.00;;
12110;SDS011;6119;52.372;8.990;2023-02-01T11:00:18;13.50;;;2.70;;
12110;SDS011;6119;52.372;8.990;2023-02-01T11:03:19;3.47;;;1.83;;
12110;SDS011;6119;52.372;8.990;2023-02-01T11:06:11;6.57;;;2.17;;
12110;SDS011;6119;52.372;8.990;2023-02-01T11:09:10;10.63;;;2.50;;
12110;SDS011;6119;52.372;8.990;2023-02-01T11:12:01;5.47;;;1.97;;
12110;SDS011;6119;52.372;8.990;2023-02-01T11:14:50;6.83;;;2.03;;
12110;SDS011;6119;52.372;8.990;2023-02-01T11:17:39;6.37;;;1.87;;
12110;SDS011;6119;52.372;8.990;2023-02-01T11:20:33;10.40;;;2.80;;
12110;SDS011;6119;52.372;8.990;2023-02-01T11:23:24;5.77;;;2.47;;
12110;SDS011;6119;52.372;8.990;2023-02-01T11:26:13;11.00;;;2.17;;
12110;SDS011;6119;52.372;8.990;2023-02-01T11:29:08;9.30;;;2.57;;
12110;SDS011;6119;52.372;8.990;2023-02-01T11:32:00;4.10;;;1.80;;
12110;SDS011;6119;52.372;8.990;2023-02-01T11:34:49;9.27;;;2.23;;
12110;SDS011;6119;52.372;8.990;2023-02-01T11:37:39;9.00;;;3.27;;
12110;SDS011;6119;52.372;8.990;2023-02-01T11:40:29;5.37;;;1.73;;
12110;SDS011;6119;52.372;8.990;2023-02-01T11:43:22;9.30;;;2.17;;
12110;SDS011;6119;52.372;8.990;2023-02-01T11:46:16;5.27;;;1.93;;
12110;SDS011;6119;52.372;8.990;2023-02-01T11:49:18;9.30;;;1.77;;
12110;SDS011;6119;52.372;8.990;2023-02-01T11:52:09;7.73;;;1.93;;
12110;SDS011;6119;52.372;8.990;2023-02-01T11:55:07;6.73;;;1.93;;
12110;SDS011;6119;52.372;8.990;2023-02-01T11:58:14;8.17;;;2.17;;
12110;SDS011;6119;52.372;8.990;2023-02-01T12:01:21;6.27;;;1.93;;
12110;SDS011;6119;52.372;8.990;2023-02-01T12:04:29;9.23;;;2.20;;
12110;SDS011;6119;52.372;8.990;2023-02-01T12:07:36;8.57;;;2.03;;
12110;SDS011;6119;52.372;8.990;2023-02-01T12:10:41;5.93;;;1.90;;
12110;SDS011;6119;52.372;8.990;2023-02-01T12:13:38;8.63;;;1.93;;
12110;SDS011;6119;52.372;8.990;2023-02-01T12:16:37;8.00;;;2.07;;
12110;SDS011;6119;52.372;8.990;2023-02-01T12:19:34;7.07;;;1.90;;
12110;SDS011;6119;52.372;8.990;2023-02-01T12:22:41;6.83;;;2.20;;
12110;SDS011;6119;52.372;8.990;2023-02-01T12:25:40;5.93;;;1.80;;
12110;SDS011;6119;52.372;8.990;2023-02-01T12:29:07;4.93;;;1.87;;
12110;SDS011;6119;52.372;8.990;2023-02-01T12:32:16;4.80;;;1.80;;
12110;SDS011;6119;52.372;8.990;2023-02-01T12:35:21;4.83;;;1.30;;
12110;SDS011;6119;52.372;8.990;2023-02-01T12:38:32;2.10;;;1.30;;
12110;SDS011;6119;52.372;8.990;2023-02-01T12:41:45;4.27;;;1.60;;
12110;SDS011;6119;52.372;8.990;2023-02-01T12:44:38;4.57;;;1.83;;
12110;SDS011;6119;52.372;8.990;2023-02-01T12:47:31;4.60;;;1.33;;
12110;SDS011;6119;52.372;8.990;2023-02-01T12:50:25;5.53;;;1.43;;
12110;SDS011;6119;52.372;8.990;2023-02-01T12:53:18;2.37;;;1.20;;
12110;SDS011;6119;52.372;8.990;2023-02-01T12:56:10;3.70;;;1.30;;
12110;SDS011;6119;52.372;8.990;2023-02-01T12:59:02;2.87;;;1.37;;
12110;SDS011;6119;52.372;8.990;2023-02-01T13:01:53;3.30;;;1.40;;
12110;SDS011;6119;52.372;8.990;2023-02-01T13:04:49;1.73;;;1.23;;
12110;SDS011;6119;52.372;8.990;2023-02-01T13:07:45;3.17;;;1.40;;
12110;SDS011;6119;52.372;8.990;2023-02-01T13:10:38;3.93;;;1.70;;
12110;SDS011;6119;52.372;8.990;2023-02-01T13:13:28;4.07;;;1.67;;
12110;SDS011;6119;52.372;8.990;2023-02-01T13:16:19;3.97;;;1.67;;
12110;SDS011;6119;52.372;8.990;2023-02-01T13:19:15;4.57;;;1.60;;
12110;SDS011;6119;52.372;8.990;2023-02-01T13:22:06;6.33;;;1.30;;
12110;SDS011;6119;52.372;8.990;2023-02-01T13:24:59;6.07;;;1.33;;
12110;SDS011;6119;52.372;8.990;2023-02-01T13:27:48;2.20;;;1.33;;
12110;SDS011;6119;52.372;8.990;2023-02-01T13:30:39;7.20;;;1.70;;
12110;SDS011;6119;52.372;8.990;2023-02-01T13:33:44;8.37;;;1.57;;
12110;SDS011;6119;52.372;8.990;2023-02-01T13:36:49;2.20;;;1.30;;
12110;SDS011;6119;52.372;8.990;2023-02-01T13:39:47;1.70;;;0.63;;
12110;SDS011;6119;52.372;8.990;2023-02-01T13:42:44;0.37;;;0.23;;
12110;SDS011;6119;52.372;8.990;2023-02-01T13:45:34;1.53;;;0.33;;
12110;SDS011;6119;52.372;8.990;2023-02-01T13:48:28;0.30;;;0.30;;
12110;SDS011;6119;52.372;8.990;2023-02-01T13:51:35;0.40;;;0.30;;
12110;SDS011;6119;52.372;8.990;2023-02-01T13:54:24;0.83;;;0.30;;
12110;SDS011;6119;52.372;8.990;2023-02-01T13:57:15;0.27;;;0.20;;
12110;SDS011;6119;52.372;8.990;2023-02-01T14:00:26;0.27;;;0.27;;
12110;SDS011;6119;52.372;8.990;2023-02-01T14:03:16;0.50;;;0.23;;
12110;SDS011;6119;52.372;8.990;2023-02-01T14:06:16;0.10;;;0.10;;
12110;SDS011;6119;52.372;8.990;2023-02-01T14:12:43;0.20;;;0.20;;
12110;SDS011;6119;52.372;8.990;2023-02-01T14:15:35;0.30;;;0.20;;
12110;SDS011;6119;52.372;8.990;2023-02-01T14:21:48;0.20;;;0.20;;
12110;SDS011;6119;52.372;8.990;2023-02-01T14:24:41;0.70;;;0.43;;
12110;SDS011;6119;52.372;8.990;2023-02-01T14:27:38;0.87;;;0.40;;
12110;SDS011;6119;52.372;8.990;2023-02-01T14:30:25;1.33;;;0.20;;
12110;SDS011;6119;52.372;8.990;2023-02-01T14:33:18;0.77;;;0.30;;
12110;SDS011;6119;52.372;8.990;2023-02-01T14:36:08;0.33;;;0.30;;
12110;SDS011;6119;52.372;8.990;2023-02-01T14:38:57;3.90;;;0.73;;
12110;SDS011;6119;52.372;8.990;2023-02-01T14:41:44;0.50;;;0.40;;
12110;SDS011;6119;52.372;8.990;2023-02-01T14:44:34;2.37;;;0.70;;
12110;SDS011;6119;52.372;8.990;2023-02-01T14:47:33;2.60;;;0.63;;
12110;SDS011;6119;52.372;8.990;2023-02-01T14:50:26;2.23;;;0.77;;
12110;SDS011;6119;52.372;8.990;2023-02-01T14:53:20;2.27;;;0.80;;
12110;SDS011;6119;52.372;8.990;2023-02-01T14:56:12;1.03;;;0.80;;
12110;SDS011;6119;52.372;8.990;2023-02-01T14:59:01;2.67;;;0.70;;
12110;SDS011;6119;52.372;8.990;2023-02-01T15:01:56;5.27;;;0.90;;
12110;SDS011;6119;52.372;8.990;2023-02-01T15:04:44;1.40;;;1.30;;
12110;SDS011;6119;52.372;8.990;2023-02-01T15:07:32;1.80;;;0.90;;
12110;SDS011;6119;52.372;8.990;2023-02-01T15:10:20;4.63;;;1.10;;
12110;SDS011;6119;52.372;8.990;2023-02-01T15:13:12;2.23;;;1.10;;
12110;SDS011;6119;52.372;8.990;2023-02-01T15:16:09;2.80;;;1.00;;
12110;SDS011;6119;52.372;8.990;2023-02-01T15:19:07;2.10;;;1.00;;
12110;SDS011;6119;52.372;8.990;2023-02-01T15:21:57;3.53;;;1.63;;
12110;SDS011;6119;52.372;8.990;2023-02-01T15:24:50;11.47;;;1.67;;
12110;SDS011;6119;52.372;8.990;2023-02-01T15:27:38;6.90;;;1.80;;
12110;SDS011;6119;52.372;8.990;2023-02-01T15:30:26;5.57;;;1.57;;
12110;SDS011;6119;52.372;8.990;2023-02-01T15:33:14;4.13;;;1.30;;
12110;SDS011;6119;52.372;8.990;2023-02-01T15:36:07;4.77;;;1.70;;
12110;SDS011;6119;52.372;8.990;2023-02-01T15:39:16;6.33;;;1.90;;
12110;SDS011;6119;52.372;8.990;2023-02-01T15:42:12;6.43;;;1.87;;
12110;SDS011;6119;52.372;8.990;2023-02-01T15:45:13;6.17;;;1.63;;
12110;SDS011;6119;52.372;8.990;2023-02-01T15:48:19;7.23;;;1.83;;
12110;SDS011;6119;52.372;8.990;2023-02-01T15:51:13;4.90;;;1.43;;
12110;SDS011;6119;52.372;8.990;2023-02-01T15:54:04;6.90;;;1.30;;
12110;SDS011;6119;52.372;8.990;2023-02-01T15:56:53;4.97;;;1.20;;
12110;SDS011;6119;52.372;8.990;2023-02-01T15:59:43;6.23;;;1.43;;
12110;SDS011;6119;52.372;8.990;2023-02-01T16:02:33;3.70;;;1.10;;
12110;SDS011;6119;52.372;8.990;2023-02-01T16:05:28;4.70;;;1.20;;
12110;SDS011;6119;52.372;8.990;2023-02-01T16:08:20;8.10;;;1.70;;
12110;SDS011;6119;52.372;8.990;2023-02-01T16:11:16;8.73;;;1.43;;
12110;SDS011;6119;52.372;8.990;2023-02-01T16:14:08;6.90;;;1.60;;
12110;SDS011;6119;52.372;8.990;2023-02-01T16:16:57;7.47;;;1.90;;
12110;SDS011;6119;52.372;8.990;2023-02-01T16:19:45;8.50;;;1.70;;
12110;SDS011;6119;52.372;8.990;2023-02-01T16:22:31;7.50;;;1.77;;
12110;SDS011;6119;52.372;8.990;2023-02-01T16:25:18;3.80;;;2.07;;
12110;SDS011;6119;52.372;8.990;2023-02-01T16:28:05;4.13;;;1.20;;
12110;SDS011;6119;52.372;8.990;2023-02-01T16:30:53;3.63;;;1.13;;
12110;SDS011;6119;52.372;8.990;2023-02-01T16:33:41;3.10;;;1.17;;
12110;SDS011;6119;52.372;8.990;2023-02-01T16:36:27;2.33;;;1.10;;
12110;SDS011;6119;52.372;8.990;2023-02-01T16:39:14;4.33;;;0.97;;
12110;SDS011;6119;52.372;8.990;2023-02-01T16:42:00;5.17;;;1.27;;
12110;SDS011;6119;52.372;8.990;2023-02-01T16:44:55;8.07;;;1.53;;
12110;SDS011;6119;52.372;8.990;2023-02-01T16:47:43;7.10;;;1.33;;
12110;SDS011;6119;52.372;8.990;2023-02-01T16:50:37;3.03;;;1.07;;
12110;SDS011;6119;52.372;8.990;2023-02-01T16:53:25;6.37;;;1.60;;
12110;SDS011;6119;52.372;8.990;2023-02-01T16:56:14;6.60;;;1.83;;
12110;SDS011;6119;52.372;8.990;2023-02-01T16:59:02;6.63;;;2.23;;
12110;SDS011;6119;52.372;8.990;2023-02-01T17:01:50;9.73;;;1.87;;
12110;SDS011;6119;52.372;8.990;2023-02-01T17:04:36;11.37;;;2.50;;
12110;SDS011;6119;52.372;8.990;2023-02-01T17:07:25;8.67;;;2.40;;
12110;SDS011;6119;52.372;8.990;2023-02-01T17:10:21;17.83;;;2.77;;
12110;SDS011;6119;52.372;8.990;2023-02-01T17:13:18;14.87;;;3.03;;
12110;SDS011;6119;52.372;8.990;2023-02-01T17:16:05;10.67;;;2.50;;
12110;SDS011;6119;52.372;8.990;2023-02-01T17:19:02;10.67;;;2.50;;
12110;SDS011;6119;52.372;8.990;2023-02-01T17:21:52;12.10;;;2.67;;
12110;SDS011;6119;52.372;8.990;2023-02-01T17:24:42;13.43;;;2.70;;
12110;SDS011;6119;52.372;8.990;2023-02-01T17:27:33;10.17;;;2.83;;
12110;SDS011;6119;52.372;8.990;2023-02-01T17:30:21;7.07;;;2.00;;
12110;SDS011;6119;52.372;8.990;2023-02-01T17:33:11;5.20;;;1.83;;